Terminal Aerodrome Forecast
Issued by NWS Cleveland, OH

Home | Current Version | Previous Version | Text Only | Print | Product List | Glossary Off
Versions: 1 2 3 4 5 6 7 8 9 10 11 12 13 14 15 16 17 18

000
FTUS41 KCLE 190200 AAA
TAFCAK
TAF AMD
KCAK 190244Z 1903/1924 27005KT 6SM -SN OVC015
      TEMPO 1903/1906 -FZDZ OVC009
     FM190600 30005KT P6SM -SN OVC010
     FM191300 32005KT P6SM OVC012=

USA.gov is the U.S. government's official web portal to all federal, state and local government web resources and services.